Time;durP1;ratioP1;P1;durP2;ratioP2;P2;SDS_P1;SDS_P2;PMS_P1;PMS_P2;Temp;Humidity;BMP_temperature;BMP_pressure;BME280_temperature;BME280_humidity;BME280_pressure;Samples;Min_cycle;Max_cycle;Signal;HPM_P1;HPM_P2
2021/06/05 00:01:09;;;;;;;41.13;29.50;;;20.20;99.90;;;;;;5056039;28;20021;-83
2021/06/05 00:03:35;;;;;;;41.08;29.67;;;20.10;99.90;;;;;;5055750;28;20504;-85
2021/06/05 00:06:03;;;;;;;44.40;30.35;;;20.10;99.90;;;;;;5055484;28;20029;-83
2021/06/05 00:08:30;;;;;;;38.90;28.23;;;20.10;99.90;;;;;;5055848;28;20025;-85
2021/06/05 00:11:04;;;;;;;35.45;26.33;;;20.10;99.90;;;;;;5054729;28;20037;-83
2021/06/05 00:13:55;;;;;;;40.05;28.67;;;20.10;99.90;;;;;;5055778;28;20641;-83
2021/06/05 00:16:24;;;;;;;39.08;28.05;;;20.10;99.90;;;;;;5055640;28;20029;-84
2021/06/05 00:18:50;;;;;;;38.45;28.45;;;20.10;99.90;;;;;;5054837;28;20426;-83
2021/06/05 00:21:18;;;;;;;37.40;28.17;;;20.00;99.90;;;;;;5056761;28;20469;-84
2021/06/05 00:23:44;;;;;;;39.20;28.88;;;20.00;99.90;;;;;;5055880;28;20020;-85
2021/06/05 00:26:10;;;;;;;38.78;27.95;;;20.00;99.90;;;;;;5057420;28;20498;-84
2021/06/05 00:28:36;;;;;;;38.03;28.75;;;20.00;99.90;;;;;;5055893;28;20508;-83
2021/06/05 00:31:02;;;;;;;38.53;28.73;;;20.00;99.90;;;;;;5055210;28;20120;-83
2021/06/05 00:33:29;;;;;;;36.47;27.63;;;20.00;99.90;;;;;;5055613;28;20474;-83
2021/06/05 00:35:55;;;;;;;39.05;28.70;;;20.00;99.90;;;;;;5055928;28;20051;-84
2021/06/05 00:38:21;;;;;;;43.33;30.05;;;20.00;99.90;;;;;;5056429;28;20021;-86
2021/06/05 00:40:52;;;;;;;38.67;28.27;;;19.90;99.90;;;;;;5054287;28;20033;-83
2021/06/05 00:43:20;;;;;;;40.35;29.13;;;19.90;99.90;;;;;;5055408;28;20029;-85
2021/06/05 00:45:46;;;;;;;40.17;28.45;;;19.90;99.90;;;;;;5055779;28;20032;-83
2021/06/05 00:48:13;;;;;;;38.97;27.67;;;19.90;99.90;;;;;;5055423;28;20036;-83
2021/06/05 00:50:40;;;;;;;41.17;28.85;;;19.90;99.90;;;;;;5054238;28;20025;-84
2021/06/05 00:53:08;;;;;;;42.17;29.48;;;19.90;99.90;;;;;;5055263;28;20055;-83
2021/06/05 00:55:37;;;;;;;41.90;28.92;;;19.90;99.90;;;;;;5055736;28;20017;-84
2021/06/05 00:58:03;;;;;;;41.20;28.42;;;19.80;99.90;;;;;;5056142;28;20039;-86
2021/06/05 01:00:36;;;;;;;41.65;30.52;;;19.80;99.90;;;;;;5055690;28;20025;-85
2021/06/05 01:03:03;;;;;;;42.05;29.08;;;19.80;99.90;;;;;;5056224;28;20648;-83
2021/06/05 01:05:30;;;;;;;37.85;28.08;;;19.90;99.90;;;;;;5055777;28;20036;-84
2021/06/05 01:08:15;;;;;;;40.55;28.63;;;19.90;99.90;;;;;;5055658;28;20017;-84
2021/06/05 01:10:42;;;;;;;41.88;28.55;;;19.90;99.90;;;;;;5055148;28;20114;-83
2021/06/05 01:13:08;;;;;;;41.30;28.65;;;19.90;99.90;;;;;;5057545;28;20374;-85
2021/06/05 01:15:44;;;;;;;36.75;26.88;;;20.00;99.90;;;;;;5060898;28;20032;-84
2021/06/05 01:18:24;;;;;;;35.55;24.98;;;20.00;99.90;;;;;;5061506;28;20033;-84
2021/06/05 01:21:40;;;;;;;34.30;25.83;;;19.90;99.90;;;;;;5060594;28;20430;-86
2021/06/05 01:24:44;;;;;;;34.28;25.17;;;19.90;99.90;;;;;;5061002;28;20021;-85
2021/06/05 01:27:22;;;;;;;32.13;23.75;;;19.80;99.90;;;;;;5060284;28;20504;-84
2021/06/05 01:29:53;;;;;;;34.90;24.63;;;19.80;99.90;;;;;;5060520;28;20462;-83
2021/06/05 01:32:18;;;;;;;30.05;24.10;;;19.80;99.90;;;;;;5060761;28;20485;-84
2021/06/05 01:34:55;;;;;;;34.55;25.25;;;19.70;99.90;;;;;;5060301;28;20033;-83
2021/06/05 01:37:22;;;;;;;31.42;24.27;;;19.60;99.90;;;;;;5060412;28;20166;-84
2021/06/05 01:39:50;;;;;;;33.63;24.38;;;19.60;99.90;;;;;;5060906;28;20044;-84
2021/06/05 01:42:28;;;;;;;33.25;25.05;;;19.60;99.90;;;;;;5060251;28;20093;-86
2021/06/05 01:44:57;;;;;;;35.30;24.95;;;19.60;99.90;;;;;;5060607;28;20028;-85
2021/06/05 01:47:23;;;;;;;37.20;24.45;;;19.60;99.90;;;;;;5060098;28;20048;-85
2021/06/05 01:49:49;;;;;;;34.20;25.15;;;19.60;99.90;;;;;;5059907;28;20045;-85
2021/06/05 01:52:21;;;;;;;30.25;23.50;;;19.50;99.90;;;;;;5060695;28;20046;-84
2021/06/05 01:54:55;;;;;;;31.38;24.80;;;19.50;99.90;;;;;;5061014;28;20025;-83
2021/06/05 01:57:25;;;;;;;39.65;26.65;;;19.50;99.90;;;;;;5061798;28;20050;-83
2021/06/05 01:59:51;;;;;;;35.08;25.75;;;19.50;99.90;;;;;;5060256;28;20016;-85
2021/06/05 02:02:16;;;;;;;36.42;26.65;;;19.50;99.90;;;;;;5062274;28;20389;-84
2021/06/05 02:04:42;;;;;;;36.50;26.98;;;19.50;99.90;;;;;;5062250;28;20021;-86
2021/06/05 02:07:09;;;;;;;35.08;26.05;;;19.50;99.90;;;;;;5062152;28;20032;-85
2021/06/05 02:09:35;;;;;;;35.70;25.80;;;19.50;99.90;;;;;;5061578;28;20025;-85
2021/06/05 02:12:13;;;;;;;41.28;27.27;;;19.60;99.90;;;;;;5060477;28;20029;-85
2021/06/05 02:14:50;;;;;;;36.53;26.38;;;19.60;99.90;;;;;;5060864;28;20056;-84
2021/06/05 02:17:19;;;;;;;37.78;26.75;;;19.60;99.90;;;;;;5061164;28;20031;-84
2021/06/05 02:19:47;;;;;;;33.38;26.05;;;19.60;99.90;;;;;;5061500;28;20036;-86
2021/06/05 02:22:20;;;;;;;38.50;26.88;;;19.60;99.90;;;;;;5060242;28;20083;-85
2021/06/05 02:24:48;;;;;;;39.05;27.85;;;19.70;99.90;;;;;;5060777;28;20021;-85
2021/06/05 02:27:17;;;;;;;38.85;28.42;;;19.70;99.90;;;;;;5063019;28;20089;-84
2021/06/05 02:29:45;;;;;;;37.97;28.35;;;19.70;99.90;;;;;;5060049;28;20040;-85
2021/06/05 02:32:13;;;;;;;39.33;28.85;;;19.60;99.90;;;;;;5061704;28;20029;-84
2021/06/05 02:34:40;;;;;;;37.00;28.35;;;19.60;99.90;;;;;;5059530;28;20394;-84
2021/06/05 02:37:10;;;;;;;39.17;29.00;;;19.60;99.90;;;;;;5060525;28;20068;-85
2021/06/05 02:39:36;;;;;;;37.78;28.13;;;19.60;99.90;;;;;;5056618;28;20052;-84
2021/06/05 02:42:03;;;;;;;38.35;28.85;;;19.60;99.90;;;;;;5057347;28;20025;-83
2021/06/05 02:44:30;;;;;;;41.60;29.55;;;19.60;99.90;;;;;;5056144;28;20021;-83
2021/06/05 02:46:57;;;;;;;41.67;30.45;;;19.60;99.90;;;;;;5055522;28;20025;-83
2021/06/05 02:49:28;;;;;;;39.38;30.13;;;19.60;99.90;;;;;;5055492;28;20499;-83
2021/06/05 02:52:11;;;;;;;38.78;28.83;;;19.60;99.90;;;;;;5056472;28;20021;-85
2021/06/05 02:54:37;;;;;;;38.78;29.42;;;19.60;99.90;;;;;;5055403;28;20079;-83
2021/06/05 02:57:07;;;;;;;42.22;30.40;;;19.60;99.90;;;;;;5054683;28;20025;-83
2021/06/05 02:59:33;;;;;;;39.13;28.02;;;19.70;99.90;;;;;;5055757;28;20016;-83
2021/06/05 03:01:59;;;;;;;36.65;28.58;;;19.70;99.90;;;;;;5055190;28;20013;-84
2021/06/05 03:04:24;;;;;;;39.38;29.85;;;19.70;99.90;;;;;;5055046;28;20032;-83
2021/06/05 03:06:52;;;;;;;41.65;30.55;;;19.60;99.90;;;;;;5055819;28;20421;-83
2021/06/05 03:09:19;;;;;;;41.40;30.30;;;19.60;99.90;;;;;;5055210;28;20029;-84
2021/06/05 03:11:48;;;;;;;40.10;29.60;;;19.50;99.90;;;;;;5056895;28;20263;-83
2021/06/05 03:14:14;;;;;;;39.83;29.05;;;19.50;99.90;;;;;;5054918;28;20586;-83
2021/06/05 03:16:40;;;;;;;36.35;28.70;;;19.50;99.90;;;;;;5055137;28;20037;-85
2021/06/05 03:19:06;;;;;;;38.33;29.58;;;19.40;99.90;;;;;;5054076;28;20032;-85
2021/06/05 03:21:32;;;;;;;38.38;28.70;;;19.40;99.90;;;;;;5056466;28;20035;-83
2021/06/05 03:23:58;;;;;;;40.03;29.15;;;19.40;99.90;;;;;;5056699;28;20032;-85
2021/06/05 03:26:24;;;;;;;41.72;30.27;;;19.40;99.90;;;;;;5056337;28;20025;-85
2021/06/05 03:28:50;;;;;;;40.13;29.67;;;19.40;99.90;;;;;;5054124;28;20043;-83
2021/06/05 03:31:20;;;;;;;40.35;29.13;;;19.40;99.90;;;;;;5054461;28;20215;-83
2021/06/05 03:33:48;;;;;;;42.47;30.63;;;19.40;99.90;;;;;;5056061;28;20025;-85
2021/06/05 03:36:14;;;;;;;41.10;30.52;;;19.40;99.90;;;;;;5054424;28;20082;-85
2021/06/05 03:38:41;;;;;;;41.20;29.80;;;19.40;99.90;;;;;;5055948;28;20033;-83
2021/06/05 03:41:08;;;;;;;45.90;31.67;;;19.40;99.90;;;;;;5053626;28;20031;-85
2021/06/05 03:43:33;;;;;;;46.35;31.25;;;19.40;99.90;;;;;;5056851;28;20027;-83
2021/06/05 03:45:59;;;;;;;46.08;31.58;;;19.40;99.90;;;;;;5054374;28;20017;-83
2021/06/05 03:48:25;;;;;;;50.80;32.95;;;19.40;99.90;;;;;;5054665;28;20118;-84
2021/06/05 03:50:53;;;;;;;50.83;33.25;;;19.40;99.90;;;;;;5055124;28;20025;-85
2021/06/05 03:53:21;;;;;;;51.20;34.17;;;19.30;99.90;;;;;;5054520;28;20059;-83
2021/06/05 03:55:47;;;;;;;57.13;38.50;;;19.30;99.90;;;;;;5056492;28;20052;-84
2021/06/05 03:58:13;;;;;;;60.35;37.15;;;19.30;99.90;;;;;;5055357;28;20028;-85
2021/06/05 04:00:44;;;;;;;60.40;37.20;;;19.30;99.90;;;;;;5053630;28;20025;-84
2021/06/05 04:03:11;;;;;;;74.63;42.03;;;19.30;99.90;;;;;;5054257;28;20021;-83
2021/06/05 04:05:38;;;;;;;69.88;41.72;;;19.30;99.90;;;;;;5054360;28;20381;-83
2021/06/05 04:08:06;;;;;;;67.63;41.08;;;19.30;99.90;;;;;;5054526;28;20025;-83
2021/06/05 04:10:31;;;;;;;70.97;41.30;;;19.20;99.90;;;;;;5053666;28;20022;-84
2021/06/05 04:12:58;;;;;;;79.30;45.40;;;19.20;99.90;;;;;;5053940;28;20029;-84
2021/06/05 04:15:25;;;;;;;81.03;45.10;;;19.20;99.90;;;;;;5054107;28;20044;-84
2021/06/05 04:18:05;;;;;;;74.45;42.75;;;19.20;99.90;;;;;;5053574;28;20469;-83
2021/06/05 04:20:32;;;;;;;74.25;43.67;;;19.20;99.90;;;;;;5054060;28;20029;-83
2021/06/05 04:22:58;;;;;;;69.88;40.35;;;19.20;99.90;;;;;;5053348;28;20025;-83
2021/06/05 04:25:27;;;;;;;61.67;38.97;;;19.20;99.90;;;;;;5053989;28;20031;-83
2021/06/05 04:27:53;;;;;;;64.38;39.65;;;19.10;99.90;;;;;;5055757;28;20037;-83
2021/06/05 04:30:22;;;;;;;63.97;39.47;;;19.10;99.90;;;;;;5053585;28;20028;-83
2021/06/05 04:32:48;;;;;;;66.63;38.92;;;19.10;99.90;;;;;;5054494;28;20029;-85
2021/06/05 04:35:14;;;;;;;71.50;42.20;;;19.20;99.90;;;;;;5055498;28;20017;-84
2021/06/05 04:37:40;;;;;;;67.95;41.72;;;19.20;99.90;;;;;;5054017;28;20123;-83
2021/06/05 04:40:07;;;;;;;66.43;40.78;;;19.20;99.90;;;;;;5054837;28;20106;-84
2021/06/05 04:42:33;;;;;;;63.90;39.58;;;19.20;99.90;;;;;;5054378;28;20032;-83
2021/06/05 04:44:58;;;;;;;56.72;36.60;;;19.20;99.90;;;;;;5053962;28;20029;-84
2021/06/05 04:47:24;;;;;;;54.00;36.38;;;19.20;99.90;;;;;;5056478;28;20028;-83
2021/06/05 04:49:50;;;;;;;58.13;38.28;;;19.10;99.90;;;;;;5059173;28;20474;-85
2021/06/05 04:52:15;;;;;;;60.95;37.45;;;19.20;99.90;;;;;;5060249;28;20436;-83
2021/06/05 04:54:41;;;;;;;57.97;36.58;;;19.20;99.90;;;;;;5058631;28;20029;-84
2021/06/05 04:57:07;;;;;;;58.38;38.90;;;19.20;99.90;;;;;;5059551;28;20033;-83
2021/06/05 04:59:32;;;;;;;59.67;38.70;;;19.20;99.90;;;;;;5057403;28;20576;-83
2021/06/05 05:01:58;;;;;;;62.78;40.25;;;19.20;99.90;;;;;;5057901;28;20117;-85
2021/06/05 05:04:24;;;;;;;63.22;40.83;;;19.20;99.90;;;;;;5059651;28;20036;-84
2021/06/05 05:06:50;;;;;;;72.22;44.20;;;19.20;99.90;;;;;;5058233;28;20096;-83
2021/06/05 05:09:17;;;;;;;66.25;42.17;;;19.20;99.90;;;;;;5057620;28;20533;-83
2021/06/05 05:11:43;;;;;;;70.68;44.03;;;19.30;99.90;;;;;;5057452;28;20056;-84
2021/06/05 05:14:11;;;;;;;70.68;44.50;;;19.30;99.90;;;;;;5059714;28;20029;-85
2021/06/05 05:16:36;;;;;;;73.03;45.95;;;19.30;99.90;;;;;;5058399;28;20075;-84
2021/06/05 05:19:02;;;;;;;74.55;46.55;;;19.30;99.90;;;;;;5059526;28;20029;-83
2021/06/05 05:21:28;;;;;;;69.95;44.92;;;19.30;99.90;;;;;;5057881;28;20060;-83
2021/06/05 05:23:55;;;;;;;73.03;45.15;;;19.30;99.90;;;;;;5060203;28;20028;-83
2021/06/05 05:26:21;;;;;;;74.00;44.35;;;19.40;99.90;;;;;;5059995;28;20070;-83
2021/06/05 05:28:49;;;;;;;72.55;44.42;;;19.40;99.90;;;;;;5059143;28;20025;-86
2021/06/05 05:31:19;;;;;;;70.97;41.20;;;19.40;99.90;;;;;;5057705;28;20025;-84
2021/06/05 05:33:45;;;;;;;70.25;41.00;;;19.50;99.90;;;;;;5057852;28;20060;-85
2021/06/05 05:36:19;;;;;;;68.82;41.65;;;19.50;99.90;;;;;;5057828;28;20029;-84
2021/06/05 05:38:45;;;;;;;63.00;38.65;;;19.60;99.90;;;;;;5058373;28;20021;-85
2021/06/05 05:41:15;;;;;;;65.70;39.67;;;19.60;99.90;;;;;;5078394;22;20064;-85
2021/06/05 05:43:41;;;;;;;68.28;41.45;;;19.50;99.90;;;;;;5055824;28;20013;-85
2021/06/05 05:46:07;;;;;;;70.22;41.00;;;19.50;99.90;;;;;;5053046;28;20469;-85
2021/06/05 05:48:34;;;;;;;65.10;39.80;;;19.50;99.90;;;;;;5053042;28;20021;-85
2021/06/05 05:51:01;;;;;;;63.42;39.53;;;19.50;99.90;;;;;;5053562;28;20462;-85
2021/06/05 05:53:27;;;;;;;64.72;39.72;;;19.50;99.90;;;;;;5053850;28;20393;-85
2021/06/05 05:55:53;;;;;;;60.10;38.53;;;19.50;99.90;;;;;;5052688;28;20021;-85
2021/06/05 05:58:21;;;;;;;66.57;39.10;;;19.40;99.90;;;;;;5052247;28;20370;-85
2021/06/05 06:00:48;;;;;;;61.67;37.75;;;19.40;99.90;;;;;;5051482;28;20025;-85
2021/06/05 06:03:15;;;;;;;63.55;37.00;;;19.40;99.90;;;;;;5052664;28;20025;-85
2021/06/05 06:05:41;;;;;;;60.65;36.92;;;19.50;99.90;;;;;;5055272;28;20020;-85
2021/06/05 06:08:09;;;;;;;59.53;35.03;;;19.50;99.90;;;;;;5052637;28;20466;-85
2021/06/05 06:10:36;;;;;;;56.92;34.38;;;19.50;99.90;;;;;;5053258;28;20082;-85
2021/06/05 06:13:03;;;;;;;56.80;34.25;;;19.50;99.90;;;;;;5053822;28;20033;-85
2021/06/05 06:15:29;;;;;;;55.50;32.95;;;19.50;99.90;;;;;;5055051;28;20512;-85
2021/06/05 06:17:56;;;;;;;57.75;33.95;;;19.50;99.90;;;;;;5052363;28;20040;-85
2021/06/05 06:20:33;;;;;;;55.25;33.20;;;19.50;99.90;;;;;;5053175;28;20044;-85
2021/06/05 06:22:59;;;;;;;58.22;32.80;;;19.50;99.90;;;;;;5052354;28;20025;-85
2021/06/05 06:25:28;;;;;;;57.25;33.50;;;19.50;99.90;;;;;;5052382;28;20056;-85
2021/06/05 06:27:54;;;;;;;54.90;34.53;;;19.50;99.90;;;;;;5052231;28;20378;-85
2021/06/05 06:30:26;;;;;;;52.65;33.15;;;19.50;99.90;;;;;;5051645;28;20397;-85
2021/06/05 06:32:52;;;;;;;56.65;34.35;;;19.50;99.90;;;;;;5051971;28;20495;-85
2021/06/05 06:35:28;;;;;;;57.42;33.10;;;19.50;99.90;;;;;;5052240;28;20029;-85
2021/06/05 06:37:55;;;;;;;56.35;32.38;;;19.50;99.90;;;;;;5052076;28;20036;-85
2021/06/05 06:40:29;;;;;;;61.65;35.10;;;19.60;99.90;;;;;;5052487;28;20035;-85
2021/06/05 06:42:55;;;;;;;61.08;33.50;;;19.60;99.90;;;;;;5052073;28;20017;-85
2021/06/05 06:45:21;;;;;;;56.35;34.00;;;19.60;99.90;;;;;;5052029;28;20025;-85
2021/06/05 06:47:48;;;;;;;58.80;33.60;;;19.50;99.90;;;;;;5051807;28;20036;-85
2021/06/05 06:50:17;;;;;;;56.53;33.55;;;19.50;99.90;;;;;;5052738;28;20094;-85
2021/06/05 06:52:43;;;;;;;55.47;33.83;;;19.50;99.90;;;;;;5051600;28;20029;-85
2021/06/05 06:55:09;;;;;;;59.42;34.83;;;19.50;99.90;;;;;;5051724;28;20120;-85
2021/06/05 06:57:35;;;;;;;60.58;32.65;;;19.50;99.90;;;;;;5051624;28;20028;-85
2021/06/05 07:00:09;;;;;;;58.10;32.70;;;19.50;99.90;;;;;;5051008;28;20020;-85
2021/06/05 07:02:35;;;;;;;49.10;31.88;;;19.50;99.90;;;;;;5051652;28;20075;-86
2021/06/05 07:05:01;;;;;;;51.22;32.50;;;19.50;99.90;;;;;;5052773;28;20033;-86
2021/06/05 07:07:28;;;;;;;51.08;31.77;;;19.50;99.90;;;;;;5051573;28;20029;-85
2021/06/05 07:09:54;;;;;;;53.97;32.63;;;19.50;99.90;;;;;;5050617;28;20139;-86
2021/06/05 07:12:20;;;;;;;55.83;33.47;;;19.50;99.90;;;;;;5052047;28;20489;-86
2021/06/05 07:14:48;;;;;;;58.60;35.28;;;19.50;99.90;;;;;;5051881;28;20067;-86
2021/06/05 07:17:18;;;;;;;56.83;34.60;;;19.50;99.90;;;;;;5052434;28;20033;-86
2021/06/05 07:19:44;;;;;;;52.40;33.67;;;19.50;99.90;;;;;;5052013;28;20096;-86
2021/06/05 07:22:10;;;;;;;53.50;33.83;;;19.50;99.90;;;;;;5052447;28;20029;-86
2021/06/05 07:24:36;;;;;;;55.97;34.25;;;19.40;99.90;;;;;;5051299;28;20499;-87
2021/06/05 07:27:02;;;;;;;52.78;33.33;;;19.40;99.90;;;;;;5051665;28;20063;-86
2021/06/05 07:29:28;;;;;;;52.08;33.95;;;19.30;99.90;;;;;;5052150;28;20025;-87
2021/06/05 07:31:54;;;;;;;52.95;34.40;;;19.40;99.90;;;;;;5051231;28;20025;-86
2021/06/05 07:34:22;;;;;;;49.50;33.38;;;19.40;99.90;;;;;;5051576;28;20025;-87
2021/06/05 07:36:51;;;;;;;51.78;33.17;;;19.40;99.90;;;;;;5052829;28;20024;-86
2021/06/05 07:39:21;;;;;;;51.25;32.60;;;19.40;99.90;;;;;;5050967;28;20469;-86
2021/06/05 07:41:47;;;;;;;48.88;31.73;;;19.30;99.90;;;;;;5051058;28;20033;-86
2021/06/05 07:44:14;;;;;;;50.05;31.13;;;19.30;99.90;;;;;;5051198;28;20036;-86
2021/06/05 07:46:41;;;;;;;46.55;30.73;;;19.30;99.90;;;;;;5051253;28;20119;-86
2021/06/05 07:49:07;;;;;;;48.58;31.83;;;19.40;99.90;;;;;;5051447;28;20029;-87
2021/06/05 07:51:33;;;;;;;52.13;33.47;;;19.30;99.90;;;;;;5054219;28;20025;-86
2021/06/05 07:53:59;;;;;;;47.20;30.65;;;19.30;99.90;;;;;;5051911;28;20090;-87
2021/06/05 07:56:24;;;;;;;48.95;32.75;;;19.30;99.90;;;;;;5052862;28;20029;-86
2021/06/05 07:58:50;;;;;;;54.80;34.30;;;19.30;99.90;;;;;;5052384;28;20112;-86
2021/06/05 08:01:16;;;;;;;51.75;33.88;;;19.30;99.90;;;;;;5051820;28;20119;-86
2021/06/05 08:03:42;;;;;;;54.28;34.40;;;19.30;99.90;;;;;;5053667;28;20030;-86
2021/06/05 08:06:07;;;;;;;53.92;35.00;;;19.30;99.90;;;;;;5053185;28;20462;-86
2021/06/05 08:08:33;;;;;;;60.03;36.03;;;19.30;99.90;;;;;;5050495;28;20025;-86
2021/06/05 08:10:59;;;;;;;55.58;34.80;;;19.30;99.90;;;;;;5051184;28;20037;-86
2021/06/05 08:13:24;;;;;;;56.33;34.67;;;19.30;99.90;;;;;;5050620;28;20034;-86
2021/06/05 08:15:52;;;;;;;61.15;36.67;;;19.30;99.90;;;;;;5050804;28;20025;-86
2021/06/05 08:18:19;;;;;;;59.90;36.67;;;19.30;99.90;;;;;;5050470;28;20029;-86
2021/06/05 08:20:55;;;;;;;62.20;35.70;;;19.30;99.90;;;;;;5050091;28;20025;-86
2021/06/05 08:23:23;;;;;;;61.60;35.88;;;19.30;99.90;;;;;;5053044;28;20025;-86
2021/06/05 08:25:49;;;;;;;72.20;39.38;;;19.40;99.90;;;;;;5055965;28;20036;-86
2021/06/05 08:28:16;;;;;;;67.55;37.63;;;19.30;99.90;;;;;;5055724;28;20033;-86
2021/06/05 08:30:45;;;;;;;70.00;38.75;;;19.40;99.90;;;;;;5054105;28;20409;-86
2021/06/05 08:33:12;;;;;;;65.55;35.83;;;19.40;99.90;;;;;;5054561;28;20119;-86
2021/06/05 08:35:38;;;;;;;65.45;36.28;;;19.40;99.90;;;;;;5054588;28;20099;-86
2021/06/05 08:38:06;;;;;;;72.32;37.95;;;19.40;99.90;;;;;;5054498;28;20056;-86
2021/06/05 08:40:46;;;;;;;70.95;35.53;;;19.40;99.90;;;;;;5053573;28;20393;-86
2021/06/05 08:43:17;;;;;;;74.18;36.45;;;19.50;99.90;;;;;;5054521;28;20029;-86
2021/06/05 08:45:43;;;;;;;71.22;36.95;;;19.50;99.90;;;;;;5055664;28;20021;-86
2021/06/05 08:48:21;;;;;;;68.22;36.10;;;19.50;99.90;;;;;;5054346;28;20039;-86
2021/06/05 08:50:47;;;;;;;67.00;34.92;;;19.50;99.90;;;;;;5053635;28;20517;-86
2021/06/05 08:53:24;;;;;;;65.72;35.10;;;19.50;99.90;;;;;;5054173;28;20189;-86
2021/06/05 08:55:55;;;;;;;64.50;34.22;;;19.50;99.90;;;;;;5055639;28;20488;-86
2021/06/05 08:58:32;;;;;;;63.30;33.38;;;19.60;99.90;;;;;;5054149;28;20132;-86
2021/06/05 09:01:06;;;;;;;68.50;34.35;;;19.60;99.90;;;;;;5053438;28;20140;-86
2021/06/05 09:03:35;;;;;;;64.35;33.55;;;19.70;99.90;;;;;;5055344;28;20079;-86
2021/06/05 09:06:06;;;;;;;65.55;34.80;;;19.70;99.90;;;;;;5055093;28;20021;-86
2021/06/05 09:08:32;;;;;;;67.75;35.75;;;19.70;99.90;;;;;;5054224;28;20021;-86
2021/06/05 09:11:00;;;;;;;62.10;34.70;;;19.60;99.90;;;;;;5058669;28;20039;-86
2021/06/05 09:13:27;;;;;;;66.68;35.40;;;19.60;99.90;;;;;;5056296;28;20037;-86
2021/06/05 09:16:14;;;;;;;77.90;37.72;;;19.60;99.90;;;;;;5057814;28;20048;-86
2021/06/05 09:18:46;;;;;;;80.18;38.28;;;19.60;99.90;;;;;;5053833;28;20166;-86
2021/06/05 09:21:12;;;;;;;69.63;34.97;;;19.60;99.90;;;;;;5054581;28;20382;-86
2021/06/05 09:23:39;;;;;;;69.15;36.47;;;19.70;99.90;;;;;;5054916;28;20047;-86
2021/06/05 09:26:28;;;;;;;66.53;35.58;;;19.60;99.90;;;;;;5053819;28;20071;-86
2021/06/05 09:29:09;;;;;;;59.13;33.03;;;19.70;99.90;;;;;;5052773;28;20028;-86
2021/06/05 09:31:59;;;;;;;61.50;33.17;;;19.70;99.90;;;;;;5053428;28;20028;-86
2021/06/05 09:34:34;;;;;;;48.83;29.13;;;19.80;99.90;;;;;;5054647;28;20025;-86
2021/06/05 09:37:01;;;;;;;57.95;33.30;;;19.90;99.90;;;;;;5053235;28;20051;-86
2021/06/05 09:39:57;;;;;;;47.40;28.88;;;19.80;99.90;;;;;;5052489;28;20028;-86
2021/06/05 09:42:41;;;;;;;56.90;32.63;;;19.90;99.90;;;;;;5053452;28;20055;-86
2021/06/05 09:45:37;;;;;;;47.13;29.52;;;19.90;99.90;;;;;;5054882;28;20013;-86
2021/06/05 09:48:24;;;;;;;53.58;32.55;;;20.00;99.90;;;;;;5046702;28;20025;-86
2021/06/05 09:50:52;;;;;;;50.08;31.80;;;20.00;99.90;;;;;;5052530;28;20370;-86
2021/06/05 09:53:25;;;;;;;50.90;32.88;;;20.00;99.90;;;;;;5054254;28;20021;-86
2021/06/05 09:55:51;;;;;;;51.03;32.10;;;20.00;99.90;;;;;;5054289;28;20036;-87
2021/06/05 09:58:42;;;;;;;49.03;31.70;;;20.00;99.90;;;;;;5054095;28;20259;-86
2021/06/05 10:01:22;;;;;;;44.30;28.52;;;20.00;99.90;;;;;;5052360;28;20393;-86
2021/06/05 10:04:07;;;;;;;46.28;28.60;;;20.10;99.90;;;;;;5053010;28;20102;-86
2021/06/05 10:06:41;;;;;;;40.28;26.70;;;20.20;99.90;;;;;;5053048;28;20379;-86
2021/06/05 10:09:24;;;;;;;45.78;29.33;;;20.30;99.90;;;;;;5053874;28;20017;-86
2021/06/05 10:11:51;;;;;;;45.28;29.90;;;20.30;99.90;;;;;;5053913;28;20021;-86
2021/06/05 10:14:38;;;;;;;39.47;27.20;;;20.40;99.90;;;;;;5054235;28;20596;-86
2021/06/05 10:17:28;;;;;;;39.83;27.73;;;20.40;99.90;;;;;;5052745;28;20029;-86
2021/06/05 10:20:13;;;;;;;42.40;28.63;;;20.50;99.90;;;;;;5052146;28;20036;-86
2021/06/05 10:22:40;;;;;;;38.88;28.30;;;20.50;99.90;;;;;;5053802;28;20061;-86
2021/06/05 10:25:38;;;;;;;36.97;26.02;;;20.50;99.90;;;;;;5053054;28;20032;-87
2021/06/05 10:28:12;;;;;;;40.65;28.10;;;20.60;99.90;;;;;;5053860;28;20049;-87
2021/06/05 10:30:53;;;;;;;43.80;28.88;;;20.60;99.90;;;;;;5051987;28;20067;-87
2021/06/05 10:33:47;;;;;;;36.42;25.67;;;20.60;99.90;;;;;;5052031;28;20120;-87
2021/06/05 10:36:43;;;;;;;35.22;26.00;;;20.60;99.90;;;;;;5051965;28;20028;-87
2021/06/05 10:39:30;;;;;;;35.17;23.52;;;20.60;99.90;;;;;;5050784;28;20112;-86
2021/06/05 10:42:02;;;;;;;36.03;26.05;;;20.60;99.90;;;;;;5051942;28;20056;-87
2021/06/05 10:44:30;;;;;;;44.03;29.38;;;20.60;99.90;;;;;;5053326;28;20028;-87
2021/06/05 10:47:12;;;;;;;48.35;32.00;;;20.60;99.90;;;;;;5051730;28;20075;-86
2021/06/05 10:49:57;;;;;;;42.20;28.63;;;20.50;99.90;;;;;;5051247;28;20445;-87
2021/06/05 10:52:53;;;;;;;43.92;28.88;;;20.50;99.90;;;;;;5051788;28;20049;-86
2021/06/05 10:55:24;;;;;;;44.83;29.92;;;20.40;99.90;;;;;;5053321;28;20060;-87
2021/06/05 10:58:13;;;;;;;50.50;30.85;;;20.40;99.90;;;;;;5051836;28;20021;-86
2021/06/05 11:00:42;;;;;;;48.15;31.15;;;20.40;99.90;;;;;;5046901;28;20044;-87
2021/06/05 11:03:09;;;;;;;51.20;33.63;;;20.40;99.90;;;;;;5053202;28;20025;-87
2021/06/05 11:05:41;;;;;;;55.13;34.65;;;20.40;99.90;;;;;;5053112;28;20362;-87
2021/06/05 11:08:16;;;;;;;53.30;33.50;;;20.40;99.90;;;;;;5051811;28;20111;-86
2021/06/05 11:10:59;;;;;;;54.08;35.25;;;20.30;99.90;;;;;;5051039;28;20497;-87
2021/06/05 11:13:35;;;;;;;53.85;33.65;;;20.30;99.90;;;;;;5051539;28;20036;-87
2021/06/05 11:16:19;;;;;;;55.92;35.38;;;20.20;99.90;;;;;;5053016;28;20025;-86
2021/06/05 11:18:47;;;;;;;49.22;32.67;;;20.20;99.90;;;;;;5051809;28;20025;-86
2021/06/05 11:21:22;;;;;;;57.75;36.10;;;20.20;99.90;;;;;;5050923;28;20116;-87
2021/06/05 11:23:57;;;;;;;57.50;37.33;;;20.30;99.90;;;;;;5052814;28;20021;-86
2021/06/05 11:26:38;;;;;;;52.83;34.53;;;20.20;99.90;;;;;;5051532;28;20520;-86
2021/06/05 11:29:09;;;;;;;61.35;38.97;;;20.20;99.90;;;;;;5051084;28;20029;-86
2021/06/05 11:31:47;;;;;;;57.30;37.42;;;20.20;99.90;;;;;;5052298;28;20021;-86
2021/06/05 11:34:37;;;;;;;52.47;35.75;;;20.20;99.90;;;;;;5051801;28;20036;-87
2021/06/05 11:37:23;;;;;;;54.70;36.75;;;20.30;99.90;;;;;;5051586;28;20033;-86
2021/06/05 11:39:52;;;;;;;53.97;37.15;;;20.30;99.90;;;;;;5040190;28;20033;-86
2021/06/05 11:42:20;;;;;;;55.05;37.50;;;20.40;99.90;;;;;;5082626;22;20069;-85
2021/06/05 11:44:56;;;;;;;67.65;44.55;;;20.40;99.90;;;;;;5059853;28;20089;-85
2021/06/05 11:47:21;;;;;;;54.03;35.85;;;20.40;99.90;;;;;;5060753;28;20062;-85
2021/06/05 11:49:51;;;;;;;71.95;44.40;;;20.40;99.90;;;;;;5074806;28;20413;-85
2021/06/05 11:52:27;;;;;;;69.63;45.40;;;20.50;99.90;;;;;;5070694;28;20025;-84
2021/06/05 11:54:58;;;;;;;69.70;46.72;;;20.40;99.90;;;;;;5050755;28;20029;-84
2021/06/05 11:57:40;;;;;;;67.20;45.35;;;20.40;99.90;;;;;;5051099;28;20033;-83
2021/06/05 12:00:10;;;;;;;80.10;50.50;;;20.40;99.90;;;;;;5050238;28;20029;-86
2021/06/05 12:02:42;;;;;;;84.72;51.97;;;20.30;99.90;;;;;;5050416;28;20024;-86
2021/06/05 12:05:25;;;;;;;97.78;54.58;;;20.10;99.90;;;;;;5050554;28;20045;-87
2021/06/05 12:07:51;;;;;;;97.57;55.83;;;20.00;99.90;;;;;;5050574;28;20029;-87
2021/06/05 12:10:37;;;;;;;90.65;51.88;;;19.80;99.90;;;;;;5051264;28;20029;-87
2021/06/05 12:13:05;;;;;;;84.50;52.00;;;19.70;99.90;;;;;;5050521;28;20118;-87
2021/06/05 12:15:36;;;;;;;84.28;53.00;;;19.70;99.90;;;;;;5051915;28;20033;-87
2021/06/05 12:18:17;;;;;;;90.03;53.45;;;19.60;99.90;;;;;;5050511;28;20560;-87
2021/06/05 12:20:59;;;;;;;87.20;52.63;;;19.60;99.90;;;;;;5051399;28;20028;-85
2021/06/05 12:23:38;;;;;;;88.95;52.92;;;19.60;99.90;;;;;;5050558;28;20082;-87
2021/06/05 12:26:09;;;;;;;97.55;56.42;;;19.60;99.90;;;;;;5051771;28;20017;-87
2021/06/05 12:28:38;;;;;;;97.53;58.58;;;19.60;99.90;;;;;;5058963;28;20025;-87
2021/06/05 12:31:28;;;;;;;98.60;58.30;;;19.60;99.90;;;;;;5058888;28;20075;-87
2021/06/05 12:34:02;;;;;;;96.15;57.95;;;19.50;99.90;;;;;;5061678;28;20021;-84
2021/06/05 12:36:29;;;;;;;92.32;56.15;;;19.60;99.90;;;;;;5061962;28;20367;-87
2021/06/05 12:39:09;;;;;;;90.15;55.60;;;19.60;99.90;;;;;;5076898;28;20021;-87
2021/06/05 12:41:35;;;;;;;91.03;53.45;;;19.60;99.90;;;;;;5060205;28;20040;-84
2021/06/05 12:44:01;;;;;;;81.30;52.45;;;19.60;99.90;;;;;;5054781;28;20048;-86
2021/06/05 12:46:36;;;;;;;82.20;51.00;;;19.70;99.90;;;;;;5050240;28;20028;-86